sensor_id;sensor_type;location;lat;lon;timestamp;pressure;altitude;pressure_sealevel;temperature;humidity
77723;BME280;67811;42.656;23.394;2023-03-01T00:01:36;95577.72;;;4.83;86.16
77723;BME280;67811;42.656;23.394;2023-03-01T00:04:07;95581.47;;;4.81;85.94
77723;BME280;67811;42.656;23.394;2023-03-01T00:06:38;95575.94;;;4.84;85.98
77723;BME280;67811;42.656;23.394;2023-03-01T00:09:08;95569.44;;;4.88;85.87
77723;BME280;67811;42.656;23.394;2023-03-01T00:11:40;95570.97;;;4.81;86.24
77723;BME280;67811;42.656;23.394;2023-03-01T00:14:11;95576.75;;;4.74;85.82
77723;BME280;67811;42.656;23.394;2023-03-01T00:16:43;95572.75;;;4.70;86.32
77723;BME280;67811;42.656;23.394;2023-03-01T00:19:15;95566.09;;;4.66;86.28
77723;BME280;67811;42.656;23.394;2023-03-01T00:21:46;95561.81;;;4.65;86.67
77723;BME280;67811;42.656;23.394;2023-03-01T00:24:17;95555.63;;;4.57;86.35
77723;BME280;67811;42.656;23.394;2023-03-01T00:26:52;95548.69;;;4.56;86.67
77723;BME280;67811;42.656;23.394;2023-03-01T00:29:23;95543.56;;;4.54;86.70
77723;BME280;67811;42.656;23.394;2023-03-01T00:31:54;95548.41;;;4.49;87.24
77723;BME280;67811;42.656;23.394;2023-03-01T00:34:25;95543.44;;;4.46;87.27
77723;BME280;67811;42.656;23.394;2023-03-01T00:36:55;95536.94;;;4.40;87.20
77723;BME280;67811;42.656;23.394;2023-03-01T00:39:26;95533.88;;;4.45;87.09
77723;BME280;67811;42.656;23.394;2023-03-01T00:41:58;95534.59;;;4.47;87.48
77723;BME280;67811;42.656;23.394;2023-03-01T00:44:28;95524.09;;;4.47;87.32
77723;BME280;67811;42.656;23.394;2023-03-01T00:46:59;95538.63;;;4.51;87.29
77723;BME280;67811;42.656;23.394;2023-03-01T00:49:29;95540.28;;;4.52;86.89
77723;BME280;67811;42.656;23.394;2023-03-01T00:52:00;95537.38;;;4.45;86.96
77723;BME280;67811;42.656;23.394;2023-03-01T00:54:30;95535.56;;;4.46;87.24
77723;BME280;67811;42.656;23.394;2023-03-01T00:57:03;95534.59;;;4.47;87.18
77723;BME280;67811;42.656;23.394;2023-03-01T00:59:33;95528.53;;;4.46;87.16
77723;BME280;67811;42.656;23.394;2023-03-01T01:02:04;95524.38;;;4.44;87.11
77723;BME280;67811;42.656;23.394;2023-03-01T01:04:34;95536.94;;;4.40;87.70
77723;BME280;67811;42.656;23.394;2023-03-01T01:07:05;95523.84;;;4.40;87.37
77723;BME280;67811;42.656;23.394;2023-03-01T01:09:35;95529.75;;;4.42;87.56
77723;BME280;67811;42.656;23.394;2023-03-01T01:12:07;95531.56;;;4.42;87.51
77723;BME280;67811;42.656;23.394;2023-03-01T01:14:38;95526.88;;;4.55;87.12
77723;BME280;67811;42.656;23.394;2023-03-01T01:17:09;95530.88;;;4.49;87.04
77723;BME280;67811;42.656;23.394;2023-03-01T01:19:39;95530.19;;;4.47;86.13
77723;BME280;67811;42.656;23.394;2023-03-01T01:22:10;95530.88;;;4.49;86.47
77723;BME280;67811;42.656;23.394;2023-03-01T01:24:40;95533.63;;;4.48;86.24
77723;BME280;67811;42.656;23.394;2023-03-01T01:27:12;95525.34;;;4.53;86.00
77723;BME280;67811;42.656;23.394;2023-03-01T01:29:43;95532.94;;;4.56;85.62
77723;BME280;67811;42.656;23.394;2023-03-01T01:32:13;95529.63;;;4.54;85.53
77723;BME280;67811;42.656;23.394;2023-03-01T01:34:44;95536.41;;;4.56;85.50
77723;BME280;67811;42.656;23.394;2023-03-01T01:37:14;95533.91;;;4.55;85.47
77723;BME280;67811;42.656;23.394;2023-03-01T01:39:45;95541.66;;;4.56;85.47
77723;BME280;67811;42.656;23.394;2023-03-01T01:42:18;95540.28;;;4.52;85.11
77723;BME280;67811;42.656;23.394;2023-03-01T01:45:28;95546.50;;;4.51;85.49
77723;BME280;67811;42.656;23.394;2023-03-01T01:48:02;95535.03;;;4.52;85.32
77723;BME280;67811;42.656;23.394;2023-03-01T01:50:33;95544.28;;;4.56;84.99
77723;BME280;67811;42.656;23.394;2023-03-01T01:53:09;95541.78;;;4.55;84.61
77723;BME280;67811;42.656;23.394;2023-03-01T01:55:44;95532.00;;;4.57;84.02
77723;BME280;67811;42.656;23.394;2023-03-01T01:58:19;95534.47;;;4.58;84.06
77723;BME280;67811;42.656;23.394;2023-03-01T02:00:51;95527.69;;;4.56;84.05
77723;BME280;67811;42.656;23.394;2023-03-01T02:03:25;95534.47;;;4.58;83.81
77723;BME280;67811;42.656;23.394;2023-03-01T02:06:02;95523.84;;;4.60;83.47
77723;BME280;67811;42.656;23.394;2023-03-01T02:08:36;95512.50;;;4.59;83.10
77723;BME280;67811;42.656;23.394;2023-03-01T02:11:07;95512.81;;;4.56;83.74
77723;BME280;67811;42.656;23.394;2023-03-01T02:13:41;95521.22;;;4.60;83.02
77723;BME280;67811;42.656;23.394;2023-03-01T02:16:15;95504.22;;;4.64;82.99
77723;BME280;67811;42.656;23.394;2023-03-01T02:18:46;95511.41;;;4.62;82.72
77723;BME280;67811;42.656;23.394;2023-03-01T02:21:37;95516.25;;;4.57;82.80
77723;BME280;67811;42.656;23.394;2023-03-01T02:24:20;95516.09;;;4.58;83.49
77723;BME280;67811;42.656;23.394;2023-03-01T02:26:56;95520.38;;;4.59;83.31
77723;BME280;67811;42.656;23.394;2023-03-01T02:29:29;95515.94;;;4.50;83.75
77723;BME280;67811;42.656;23.394;2023-03-01T02:32:02;95522.59;;;4.54;84.10
77723;BME280;67811;42.656;23.394;2023-03-01T02:34:34;95513.63;;;4.57;83.96
77723;BME280;67811;42.656;23.394;2023-03-01T02:37:09;95527.84;;;4.54;84.53
77723;BME280;67811;42.656;23.394;2023-03-01T02:39:44;95527.31;;;4.51;84.60
77723;BME280;67811;42.656;23.394;2023-03-01T02:42:21;95531.69;;;4.50;84.52
77723;BME280;67811;42.656;23.394;2023-03-01T02:44:54;95531.00;;;4.48;84.66
77723;BME280;67811;42.656;23.394;2023-03-01T02:47:24;95519.69;;;4.47;84.63
77723;BME280;67811;42.656;23.394;2023-03-01T02:49:55;95523.69;;;4.42;84.48
77723;BME280;67811;42.656;23.394;2023-03-01T02:52:36;95530.59;;;4.43;84.68
77723;BME280;67811;42.656;23.394;2023-03-01T02:55:13;95530.72;;;4.41;84.62
77723;BME280;67811;42.656;23.394;2023-03-01T02:57:46;95530.88;;;4.40;85.20
77723;BME280;67811;42.656;23.394;2023-03-01T03:00:20;95520.22;;;4.41;84.92
77723;BME280;67811;42.656;23.394;2023-03-01T03:02:53;95523.84;;;4.40;84.98
77723;BME280;67811;42.656;23.394;2023-03-01T03:05:26;95518.00;;;4.37;84.61
77723;BME280;67811;42.656;23.394;2023-03-01T03:07:58;95508.06;;;4.31;85.18
77723;BME280;67811;42.656;23.394;2023-03-01T03:10:32;95518.72;;;4.29;84.88
77723;BME280;67811;42.656;23.394;2023-03-01T03:13:04;95513.56;;;4.28;84.90
77723;BME280;67811;42.656;23.394;2023-03-01T03:15:37;95524.34;;;4.25;85.48
77723;BME280;67811;42.656;23.394;2023-03-01T03:18:10;95517.56;;;4.22;85.43
77723;BME280;67811;42.656;23.394;2023-03-01T03:20:43;95513.44;;;4.19;85.78
77723;BME280;67811;42.656;23.394;2023-03-01T03:23:14;95527.53;;;4.18;85.40
77723;BME280;67811;42.656;23.394;2023-03-01T03:25:44;95538.00;;;4.18;85.76
77723;BME280;67811;42.656;23.394;2023-03-01T03:28:15;95539.22;;;4.14;85.22
77723;BME280;67811;42.656;23.394;2023-03-01T03:30:47;95532.44;;;4.12;85.88
77723;BME280;67811;42.656;23.394;2023-03-01T03:33:17;95525.44;;;4.12;85.80
77723;BME280;67811;42.656;23.394;2023-03-01T03:35:49;95538.25;;;4.15;85.53
77723;BME280;67811;42.656;23.394;2023-03-01T03:38:20;95532.19;;;4.15;85.15
77723;BME280;67811;42.656;23.394;2023-03-01T03:40:54;95527.53;;;4.18;85.66
77723;BME280;67811;42.656;23.394;2023-03-01T03:43:30;95532.75;;;4.18;85.51
77723;BME280;67811;42.656;23.394;2023-03-01T03:46:03;95531.66;;;4.21;85.36
77723;BME280;67811;42.656;23.394;2023-03-01T03:48:35;95537.28;;;4.16;85.82
77723;BME280;67811;42.656;23.394;2023-03-01T03:51:06;95538.94;;;4.17;85.96
77723;BME280;67811;42.656;23.394;2023-03-01T03:53:36;95545.44;;;4.13;86.04
77723;BME280;67811;42.656;23.394;2023-03-01T03:56:07;95543.06;;;4.10;86.17
77723;BME280;67811;42.656;23.394;2023-03-01T03:58:38;95541.44;;;4.09;86.19
77723;BME280;67811;42.656;23.394;2023-03-01T04:01:10;95532.88;;;4.07;86.02
77723;BME280;67811;42.656;23.394;2023-03-01T04:03:40;95531.09;;;4.08;85.68
77723;BME280;67811;42.656;23.394;2023-03-01T04:06:11;95537.16;;;4.08;85.54
77723;BME280;67811;42.656;23.394;2023-03-01T04:08:41;95535.34;;;4.09;85.61
77723;BME280;67811;42.656;23.394;2023-03-01T04:11:12;95530.53;;;4.14;85.52
77723;BME280;67811;42.656;23.394;2023-03-01T04:13:43;95538.41;;;4.14;85.65
77723;BME280;67811;42.656;23.394;2023-03-01T04:16:15;95540.06;;;4.15;85.24
77723;BME280;67811;42.656;23.394;2023-03-01T04:18:46;95542.13;;;4.11;86.17
77723;BME280;67811;42.656;23.394;2023-03-01T04:21:16;95541.72;;;4.16;85.62
77723;BME280;67811;42.656;23.394;2023-03-01T04:23:47;95530.97;;;4.19;85.62
77723;BME280;67811;42.656;23.394;2023-03-01T04:26:18;95527.53;;;4.18;85.58
77723;BME280;67811;42.656;23.394;2023-03-01T04:28:49;95539.53;;;4.21;85.71
77723;BME280;67811;42.656;23.394;2023-03-01T04:31:21;95542.97;;;4.21;86.07
77723;BME280;67811;42.656;23.394;2023-03-01T04:33:53;95547.09;;;4.14;86.41
77723;BME280;67811;42.656;23.394;2023-03-01T04:36:26;95536.47;;;4.16;86.36
77723;BME280;67811;42.656;23.394;2023-03-01T04:38:57;95536.91;;;4.21;86.20
77723;BME280;67811;42.656;23.394;2023-03-01T04:41:27;95537.19;;;4.18;85.94
77723;BME280;67811;42.656;23.394;2023-03-01T04:43:58;95537.44;;;4.15;86.11
77723;BME280;67811;42.656;23.394;2023-03-01T04:46:30;95538.25;;;4.15;86.09
77723;BME280;67811;42.656;23.394;2023-03-01T04:49:00;95539.50;;;4.11;86.27
77723;BME280;67811;42.656;23.394;2023-03-01T04:51:31;95536.16;;;4.00;86.25
77723;BME280;67811;42.656;23.394;2023-03-01T04:54:02;95535.19;;;4.01;86.61
77723;BME280;67811;42.656;23.394;2023-03-01T04:56:33;95526.47;;;3.90;86.76
77723;BME280;67811;42.656;23.394;2023-03-01T04:59:03;95529.34;;;3.87;87.22
77723;BME280;67811;42.656;23.394;2023-03-01T05:01:35;95538.03;;;3.88;87.42
77723;BME280;67811;42.656;23.394;2023-03-01T05:04:06;95530.19;;;3.88;87.39
77723;BME280;67811;42.656;23.394;2023-03-01T05:06:36;95529.22;;;3.89;87.48
77723;BME280;67811;42.656;23.394;2023-03-01T05:09:07;95542.31;;;3.89;87.15
77723;BME280;67811;42.656;23.394;2023-03-01T05:11:37;95536.53;;;3.85;87.59
77723;BME280;67811;42.656;23.394;2023-03-01T05:14:10;95536.63;;;3.84;87.89
77723;BME280;67811;42.656;23.394;2023-03-01T05:16:42;95540.81;;;3.86;87.43
77723;BME280;67811;42.656;23.394;2023-03-01T05:19:13;95543.75;;;4.03;88.92
77723;BME280;67811;42.656;23.394;2023-03-01T05:21:43;95541.56;;;4.17;88.68
77723;BME280;67811;42.656;23.394;2023-03-01T05:24:14;95541.59;;;4.27;86.71
77723;BME280;67811;42.656;23.394;2023-03-01T05:26:44;95538.00;;;4.28;85.19
77723;BME280;67811;42.656;23.394;2023-03-01T05:29:15;95534.56;;;4.18;85.18
77723;BME280;67811;42.656;23.394;2023-03-01T05:31:47;95545.16;;;4.16;85.96
77723;BME280;67811;42.656;23.394;2023-03-01T05:34:17;95531.63;;;4.11;85.92
77723;BME280;67811;42.656;23.394;2023-03-01T05:36:48;95531.34;;;4.05;85.99
77723;BME280;67811;42.656;23.394;2023-03-01T05:39:19;95538.22;;;3.96;86.22
77723;BME280;67811;42.656;23.394;2023-03-01T05:41:52;95544.41;;;3.95;86.54
77723;BME280;67811;42.656;23.394;2023-03-01T05:44:24;95537.50;;;3.94;86.51
77723;BME280;67811;42.656;23.394;2023-03-01T05:46:56;95544.28;;;3.96;86.35
77723;BME280;67811;42.656;23.394;2023-03-01T05:49:26;95550.09;;;4.00;85.69
77723;BME280;67811;42.656;23.394;2023-03-01T05:51:57;95554.38;;;4.01;85.88
77723;BME280;67811;42.656;23.394;2023-03-01T05:54:27;95550.41;;;4.16;86.50
77723;BME280;67811;42.656;23.394;2023-03-01T05:56:58;95551.81;;;4.20;85.50
77723;BME280;67811;42.656;23.394;2023-03-01T05:59:28;95559.09;;;4.17;85.57
77723;BME280;67811;42.656;23.394;2023-03-01T06:02:00;95558.97;;;4.09;86.29
77723;BME280;67811;42.656;23.394;2023-03-01T06:04:31;95564.34;;;4.07;86.08
77723;BME280;67811;42.656;23.394;2023-03-01T06:07:01;95563.63;;;4.05;86.02
77723;BME280;67811;42.656;23.394;2023-03-01T06:09:32;95569.06;;;4.13;85.86
77723;BME280;67811;42.656;23.394;2023-03-01T06:12:03;95572.66;;;4.12;86.06
77723;BME280;67811;42.656;23.394;2023-03-01T06:14:33;95574.28;;;4.13;86.38
77723;BME280;67811;42.656;23.394;2023-03-01T06:17:05;95580.91;;;4.08;86.43
77723;BME280;67811;42.656;23.394;2023-03-01T06:19:36;95578.28;;;4.08;86.73
77723;BME280;67811;42.656;23.394;2023-03-01T06:22:07;95590.25;;;4.01;87.00
77723;BME280;67811;42.656;23.394;2023-03-01T06:24:37;95582.38;;;4.01;87.58
77723;BME280;67811;42.656;23.394;2023-03-01T06:27:08;95589.56;;;3.99;87.76
77723;BME280;67811;42.656;23.394;2023-03-01T06:29:38;95581.44;;;4.02;87.60
77723;BME280;67811;42.656;23.394;2023-03-01T06:32:10;95588.03;;;3.96;87.35
77723;BME280;67811;42.656;23.394;2023-03-01T06:34:41;95588.16;;;3.94;87.46
77723;BME280;67811;42.656;23.394;2023-03-01T06:37:11;95579.91;;;3.99;87.41
77723;BME280;67811;42.656;23.394;2023-03-01T06:39:42;95584.06;;;4.02;87.09
77723;BME280;67811;42.656;23.394;2023-03-01T06:42:12;95590.56;;;4.17;87.03
77723;BME280;67811;42.656;23.394;2023-03-01T06:44:44;95582.59;;;4.18;86.07
77723;BME280;67811;42.656;23.394;2023-03-01T06:47:16;95591.00;;;4.22;85.38
77723;BME280;67811;42.656;23.394;2023-03-01T06:49:46;95586.88;;;4.19;85.28
77723;BME280;67811;42.656;23.394;2023-03-01T06:52:17;95584.41;;;4.18;85.16
77723;BME280;67811;42.656;23.394;2023-03-01T06:54:47;95585.44;;;4.06;85.73
77723;BME280;67811;42.656;23.394;2023-03-01T06:57:18;95584.66;;;4.15;85.75
77723;BME280;67811;42.656;23.394;2023-03-01T06:59:48;95587.84;;;4.18;85.40
77723;BME280;67811;42.656;23.394;2023-03-01T07:02:21;95580.50;;;4.12;85.69
77723;BME280;67811;42.656;23.394;2023-03-01T07:04:52;95588.38;;;4.12;85.45
77723;BME280;67811;42.656;23.394;2023-03-01T07:07:22;95584.06;;;4.11;85.54
77723;BME280;67811;42.656;23.394;2023-03-01T07:09:53;95593.34;;;4.15;85.33
77723;BME280;67811;42.656;23.394;2023-03-01T07:12:23;95574.34;;;4.23;85.07
77723;BME280;67811;42.656;23.394;2023-03-01T07:14:54;95579.97;;;4.18;85.33
77723;BME280;67811;42.656;23.394;2023-03-01T07:17:26;95582.75;;;4.27;85.54
77723;BME280;67811;42.656;23.394;2023-03-01T07:19:56;95576.53;;;4.28;84.79
77723;BME280;67811;42.656;23.394;2023-03-01T07:22:27;95580.56;;;4.32;84.86
77723;BME280;67811;42.656;23.394;2023-03-01T07:24:57;95579.19;;;4.37;84.77
77723;BME280;67811;42.656;23.394;2023-03-01T07:27:28;95582.09;;;4.34;83.98
77723;BME280;67811;42.656;23.394;2023-03-01T07:29:58;95573.13;;;4.46;83.44
77723;BME280;67811;42.656;23.394;2023-03-01T07:32:30;95578.09;;;4.49;83.42
77723;BME280;67811;42.656;23.394;2023-03-01T07:35:01;95565.16;;;4.58;82.71
77723;BME280;67811;42.656;23.394;2023-03-01T07:37:31;95562.22;;;4.61;81.76
77723;BME280;67811;42.656;23.394;2023-03-01T07:40:03;95563.22;;;4.69;81.43
77723;BME280;67811;42.656;23.394;2023-03-01T07:42:33;95571.94;;;4.80;81.18
77723;BME280;67811;42.656;23.394;2023-03-01T07:45:05;95562.53;;;4.77;81.22
77723;BME280;67811;42.656;23.394;2023-03-01T07:47:37;95563.47;;;4.66;80.77
77723;BME280;67811;42.656;23.394;2023-03-01T07:50:09;95565.44;;;4.74;81.11
77723;BME280;67811;42.656;23.394;2023-03-01T07:52:40;95567.94;;;4.85;80.88
77723;BME280;67811;42.656;23.394;2023-03-01T07:55:10;95552.72;;;4.89;80.53
77723;BME280;67811;42.656;23.394;2023-03-01T07:57:41;95550.50;;;4.94;80.44
77723;BME280;67811;42.656;23.394;2023-03-01T08:00:12;95537.38;;;5.13;79.38
77723;BME280;67811;42.656;23.394;2023-03-01T08:02:44;95545.03;;;5.44;78.60
77723;BME280;67811;42.656;23.394;2023-03-01T08:05:15;95548.63;;;5.52;77.55
77723;BME280;67811;42.656;23.394;2023-03-01T08:07:46;95550.69;;;5.59;77.78
77723;BME280;67811;42.656;23.394;2023-03-01T08:10:17;95546.22;;;5.69;77.33
77723;BME280;67811;42.656;23.394;2023-03-01T08:12:47;95550.28;;;5.44;77.67
77723;BME280;67811;42.656;23.394;2023-03-01T08:15:18;95544.28;;;5.14;78.86
77723;BME280;67811;42.656;23.394;2023-03-01T08:17:50;95542.88;;;5.20;79.28
77723;BME280;67811;42.656;23.394;2023-03-01T08:20:20;95553.53;;;5.28;79.04
77723;BME280;67811;42.656;23.394;2023-03-01T08:22:51;95546.31;;;5.40;78.75
77723;BME280;67811;42.656;23.394;2023-03-01T08:25:21;95542.44;;;5.34;78.13
77723;BME280;67811;42.656;23.394;2023-03-01T08:27:52;95550.34;;;5.34;76.18
77723;BME280;67811;42.656;23.394;2023-03-01T08:30:22;95541.59;;;5.43;76.43
77723;BME280;67811;42.656;23.394;2023-03-01T08:32:55;95544.63;;;5.48;75.20
77723;BME280;67811;42.656;23.394;2023-03-01T08:35:25;95540.06;;;5.50;75.45
77723;BME280;67811;42.656;23.394;2023-03-01T08:37:56;95551.75;;;5.66;74.45
77723;BME280;67811;42.656;23.394;2023-03-01T08:40:26;95540.13;;;5.78;74.07
77723;BME280;67811;42.656;23.394;2023-03-01T08:42:57;95544.31;;;5.61;74.01
77723;BME280;67811;42.656;23.394;2023-03-01T08:45:28;95535.50;;;5.52;73.47
77723;BME280;67811;42.656;23.394;2023-03-01T08:48:00;95548.22;;;5.38;74.74
77723;BME280;67811;42.656;23.394;2023-03-01T08:50:30;95544.63;;;5.48;75.06
77723;BME280;67811;42.656;23.394;2023-03-01T08:53:01;95552.94;;;5.44;74.70
77723;BME280;67811;42.656;23.394;2023-03-01T08:55:31;95550.69;;;5.49;74.26
77723;BME280;67811;42.656;23.394;2023-03-01T08:58:02;95564.00;;;5.47;74.76
77723;BME280;67811;42.656;23.394;2023-03-01T09:00:32;95559.41;;;5.59;74.34
77723;BME280;67811;42.656;23.394;2023-03-01T09:03:04;95550.59;;;5.41;74.45
77723;BME280;67811;42.656;23.394;2023-03-01T09:05:35;95548.22;;;5.57;74.00
77723;BME280;67811;42.656;23.394;2023-03-01T09:08:05;95546.69;;;5.54;73.55
77723;BME280;67811;42.656;23.394;2023-03-01T09:10:37;95540.09;;;5.41;75.15
77723;BME280;67811;42.656;23.394;2023-03-01T09:13:08;95556.50;;;5.52;75.05
77723;BME280;67811;42.656;23.394;2023-03-01T09:15:39;95552.94;;;5.44;74.97
77723;BME280;67811;42.656;23.394;2023-03-01T09:18:11;95559.56;;;5.48;75.01
77723;BME280;67811;42.656;23.394;2023-03-01T09:20:42;95546.88;;;5.34;75.43
77723;BME280;67811;42.656;23.394;2023-03-01T09:23:12;95549.22;;;5.37;74.83
77723;BME280;67811;42.656;23.394;2023-03-01T09:25:43;95537.88;;;5.46;75.10
77723;BME280;67811;42.656;23.394;2023-03-01T09:28:13;95541.31;;;5.37;75.09
77723;BME280;67811;42.656;23.394;2023-03-01T09:30:44;95551.00;;;5.46;74.81
77723;BME280;67811;42.656;23.394;2023-03-01T09:33:16;95541.31;;;5.46;75.06
77723;BME280;67811;42.656;23.394;2023-03-01T09:35:46;95550.44;;;5.52;75.73
77723;BME280;67811;42.656;23.394;2023-03-01T09:38:17;95543.66;;;5.49;74.70
77723;BME280;67811;42.656;23.394;2023-03-01T09:40:47;95545.72;;;5.55;75.09
77723;BME280;67811;42.656;23.394;2023-03-01T09:43:21;95534.25;;;5.47;75.10
77723;BME280;67811;42.656;23.394;2023-03-01T09:45:55;95536.03;;;5.56;75.29
77723;BME280;67811;42.656;23.394;2023-03-01T09:48:38;95533.47;;;5.74;75.27
77723;BME280;67811;42.656;23.394;2023-03-01T09:51:17;95523.06;;;5.82;74.84
77723;BME280;67811;42.656;23.394;2023-03-01T09:53:48;95516.84;;;5.83;74.14
77723;BME280;67811;42.656;23.394;2023-03-01T09:56:21;95519.59;;;5.91;74.20
77723;BME280;67811;42.656;23.394;2023-03-01T09:58:59;95518.69;;;5.73;74.32
77723;BME280;67811;42.656;23.394;2023-03-01T10:01:35;95515.03;;;5.84;74.01
77723;BME280;67811;42.656;23.394;2023-03-01T10:04:26;95521.25;;;5.55;75.03
77723;BME280;67811;42.656;23.394;2023-03-01T10:07:21;95517.34;;;5.59;75.23
77723;BME280;67811;42.656;23.394;2023-03-01T10:09:57;95510.66;;;5.65;75.14
77723;BME280;67811;42.656;23.394;2023-03-01T10:12:33;95510.47;;;5.86;73.81
77723;BME280;67811;42.656;23.394;2023-03-01T10:15:08;95502.25;;;5.61;75.08
77723;BME280;67811;42.656;23.394;2023-03-01T10:17:44;95517.50;;;5.58;74.93
77723;BME280;67811;42.656;23.394;2023-03-01T10:20:22;95504.00;;;5.70;74.74
77723;BME280;67811;42.656;23.394;2023-03-01T10:22:53;95508.28;;;5.71;74.72
77723;BME280;67811;42.656;23.394;2023-03-01T10:25:44;95495.09;;;5.81;74.58
77723;BME280;67811;42.656;23.394;2023-03-01T10:28:20;95477.16;;;6.04;73.90
77723;BME280;67811;42.656;23.394;2023-03-01T10:30:56;95480.56;;;6.14;73.26
77723;BME280;67811;42.656;23.394;2023-03-01T10:33:31;95472.91;;;6.21;72.07
77723;BME280;67811;42.656;23.394;2023-03-01T10:36:04;95482.47;;;6.22;71.67
77723;BME280;67811;42.656;23.394;2023-03-01T10:38:48;95480.34;;;6.25;74.65
77723;BME280;67811;42.656;23.394;2023-03-01T10:41:19;95478.44;;;6.27;74.47
77723;BME280;67811;42.656;23.394;2023-03-01T10:43:52;95456.66;;;6.07;73.43
77723;BME280;67811;42.656;23.394;2023-03-01T10:46:25;95462.94;;;5.97;73.53
77723;BME280;67811;42.656;23.394;2023-03-01T10:49:15;95464.00;;;6.04;73.00
77723;BME280;67811;42.656;23.394;2023-03-01T10:51:49;95463.88;;;6.05;72.86
77723;BME280;67811;42.656;23.394;2023-03-01T10:54:24;95454.03;;;6.25;73.00
77723;BME280;67811;42.656;23.394;2023-03-01T10:56:57;95461.81;;;6.27;72.80
77723;BME280;67811;42.656;23.394;2023-03-01T10:59:29;95469.94;;;6.33;72.52
77723;BME280;67811;42.656;23.394;2023-03-01T11:02:15;95460.22;;;6.16;72.33
77723;BME280;67811;42.656;23.394;2023-03-01T11:05:01;95463.69;;;6.34;72.46
77723;BME280;67811;42.656;23.394;2023-03-01T11:07:46;95459.84;;;6.47;70.78
77723;BME280;67811;42.656;23.394;2023-03-01T11:10:19;95470.47;;;6.73;70.66
77723;BME280;67811;42.656;23.394;2023-03-01T11:12:50;95470.75;;;6.88;70.71
77723;BME280;67811;42.656;23.394;2023-03-01T11:15:24;95458.78;;;6.75;70.35
77723;BME280;67811;42.656;23.394;2023-03-01T11:17:56;95456.31;;;6.74;69.56
77723;BME280;67811;42.656;23.394;2023-03-01T11:20:33;95461.81;;;6.63;70.26
77723;BME280;67811;42.656;23.394;2023-03-01T11:23:10;95456.63;;;6.53;71.20
77723;BME280;67811;42.656;23.394;2023-03-01T11:25:54;95455.44;;;6.65;71.07
77723;BME280;67811;42.656;23.394;2023-03-01T11:28:26;95457.00;;;6.58;70.67
77723;BME280;67811;42.656;23.394;2023-03-01T11:31:00;95466.69;;;6.57;71.08
77723;BME280;67811;42.656;23.394;2023-03-01T11:33:37;95457.75;;;6.50;71.38
77723;BME280;67811;42.656;23.394;2023-03-01T11:36:16;95459.19;;;6.45;71.59
77723;BME280;67811;42.656;23.394;2023-03-01T11:38:53;95452.13;;;6.45;72.05
77723;BME280;67811;42.656;23.394;2023-03-01T11:41:25;95457.59;;;6.52;72.47
77723;BME280;67811;42.656;23.394;2023-03-01T11:43:58;95454.06;;;6.61;71.71
77723;BME280;67811;42.656;23.394;2023-03-01T11:46:50;95442.56;;;6.44;71.28
77723;BME280;67811;42.656;23.394;2023-03-01T11:49:45;95436.69;;;6.50;71.55
77723;BME280;67811;42.656;23.394;2023-03-01T11:52:25;95435.09;;;6.57;71.57
77723;BME280;67811;42.656;23.394;2023-03-01T11:55:13;95422.28;;;6.80;70.94
77723;BME280;67811;42.656;23.394;2023-03-01T11:58:05;95424.66;;;6.66;70.63
77723;BME280;67811;42.656;23.394;2023-03-01T12:00:48;95424.34;;;6.69;70.96
77723;BME280;67811;42.656;23.394;2023-03-01T12:03:29;95432.41;;;6.67;71.00
77723;BME280;67811;42.656;23.394;2023-03-01T12:06:15;95419.03;;;6.86;70.34
77723;BME280;67811;42.656;23.394;2023-03-01T12:08:58;95424.28;;;7.04;69.14
77723;BME280;67811;42.656;23.394;2023-03-01T12:11:41;95423.38;;;6.96;69.22
77723;BME280;67811;42.656;23.394;2023-03-01T12:14:31;95419.94;;;6.95;69.49
77723;BME280;67811;42.656;23.394;2023-03-01T12:17:20;95413.63;;;6.88;69.99
77723;BME280;67811;42.656;23.394;2023-03-01T12:22:50;95398.31;;;7.18;69.08
77723;BME280;67811;42.656;23.394;2023-03-01T12:25:31;95410.47;;;7.10;69.25
77723;BME280;67811;42.656;23.394;2023-03-01T12:28:22;95407.22;;;6.91;70.24
77723;BME280;67811;42.656;23.394;2023-03-01T12:31:29;95403.91;;;6.89;70.32
77723;BME280;67811;42.656;23.394;2023-03-01T12:34:11;95404.03;;;7.05;69.82
77723;BME280;67811;42.656;23.394;2023-03-01T12:36:59;95410.31;;;7.12;69.90
77723;BME280;67811;42.656;23.394;2023-03-01T12:39:43;95406.88;;;7.20;69.11
77723;BME280;67811;42.656;23.394;2023-03-01T12:42:26;95399.75;;;7.04;69.11
77723;BME280;67811;42.656;23.394;2023-03-01T12:48:12;95398.06;;;6.77;70.54
77723;BME280;67811;42.656;23.394;2023-03-01T12:50:48;95396.66;;;6.91;70.49
77723;BME280;67811;42.656;23.394;2023-03-01T12:53:23;95391.94;;;7.20;69.84
77723;BME280;67811;42.656;23.394;2023-03-01T12:55:58;95395.97;;;7.40;68.89
77723;BME280;67811;42.656;23.394;2023-03-01T12:58:32;95381.13;;;7.05;69.30
77723;BME280;67811;42.656;23.394;2023-03-01T13:01:19;95397.31;;;7.10;69.35
77723;BME280;67811;42.656;23.394;2023-03-01T13:04:12;95392.44;;;7.24;68.89
77723;BME280;67811;42.656;23.394;2023-03-01T13:06:55;95391.25;;;7.18;69.22
77723;BME280;67811;42.656;23.394;2023-03-01T13:09:34;95397.72;;;6.98;70.60
77723;BME280;67811;42.656;23.394;2023-03-01T13:15:32;95391.94;;;7.20;70.21
77723;BME280;67811;42.656;23.394;2023-03-01T13:18:28;95396.31;;;7.11;70.53
77723;BME280;67811;42.656;23.394;2023-03-01T13:21:01;95399.63;;;7.13;69.72
77723;BME280;67811;42.656;23.394;2023-03-01T13:23:36;95400.94;;;7.09;69.65
77723;BME280;67811;42.656;23.394;2023-03-01T13:26:15;95389.88;;;7.06;70.15
77723;BME280;67811;42.656;23.394;2023-03-01T13:28:54;95390.66;;;6.98;70.68
77723;BME280;67811;42.656;23.394;2023-03-01T13:31:58;95399.16;;;7.18;69.93
77723;BME280;67811;42.656;23.394;2023-03-01T13:34:58;95395.03;;;7.16;69.50
77723;BME280;67811;42.656;23.394;2023-03-01T13:37:32;95391.31;;;7.26;69.59
77723;BME280;67811;42.656;23.394;2023-03-01T13:42:49;95391.50;;;7.07;70.06
77723;BME280;67811;42.656;23.394;2023-03-01T13:45:23;95392.22;;;7.17;69.86
77723;BME280;67811;42.656;23.394;2023-03-01T13:47:57;95396.31;;;6.85;70.82